sensor_id;sensor_type;location;lat;lon;timestamp;P1;P2;P0
82151;PMS5003;71721;47.904;-122.188;2024-02-14T00:00:05;2;2;
82151;PMS5003;71721;47.904;-122.188;2024-02-14T00:02:30;3;3;
82151;PMS5003;71721;47.904;-122.188;2024-02-14T00:04:56;3;3;
82151;PMS5003;71721;47.904;-122.188;2024-02-14T00:07:22;3;3;
82151;PMS5003;71721;47.904;-122.188;2024-02-14T00:09:47;3;2;
82151;PMS5003;71721;47.904;-122.188;2024-02-14T00:12:13;5;4;
82151;PMS5003;71721;47.904;-122.188;2024-02-14T00:14:44;4;3;
82151;PMS5003;71721;47.904;-122.188;2024-02-14T00:17:05;2;2;
82151;PMS5003;71721;47.904;-122.188;2024-02-14T00:19:30;2;2;
82151;PMS5003;71721;47.904;-122.188;2024-02-14T00:21:56;3;3;
82151;PMS5003;71721;47.904;-122.188;2024-02-14T00:24:22;2;2;
82151;PMS5003;71721;47.904;-122.188;2024-02-14T00:26:47;1;1;
82151;PMS5003;71721;47.904;-122.188;2024-02-14T00:29:13;3;3;
82151;PMS5003;71721;47.904;-122.188;2024-02-14T00:31:39;3;3;
82151;PMS5003;71721;47.904;-122.188;2024-02-14T00:34:05;2;2;
82151;PMS5003;71721;47.904;-122.188;2024-02-14T00:36:30;3;2;
82151;PMS5003;71721;47.904;-122.188;2024-02-14T00:38:56;2;2;
82151;PMS5003;71721;47.904;-122.188;2024-02-14T00:41:22;3;2;
82151;PMS5003;71721;47.904;-122.188;2024-02-14T00:43:47;2;2;
82151;PMS5003;71721;47.904;-122.188;2024-02-14T00:46:15;2;2;
82151;PMS5003;71721;47.904;-122.188;2024-02-14T00:48:39;2;2;
82151;PMS5003;71721;47.904;-122.188;2024-02-14T00:51:04;3;3;
82151;PMS5003;71721;47.904;-122.188;2024-02-14T00:53:30;2;2;
82151;PMS5003;71721;47.904;-122.188;2024-02-14T00:55:56;2;2;
82151;PMS5003;71721;47.904;-122.188;2024-02-14T00:58:21;2;2;
82151;PMS5003;71721;47.904;-122.188;2024-02-14T01:00:47;2;2;
82151;PMS5003;71721;47.904;-122.188;2024-02-14T01:03:13;3;3;
82151;PMS5003;71721;47.904;-122.188;2024-02-14T01:05:39;2;2;
82151;PMS5003;71721;47.904;-122.188;2024-02-14T01:08:05;3;3;
82151;PMS5003;71721;47.904;-122.188;2024-02-14T01:10:30;4;3;
82151;PMS5003;71721;47.904;-122.188;2024-02-14T01:12:56;4;4;
82151;PMS5003;71721;47.904;-122.188;2024-02-14T01:15:21;3;3;
82151;PMS5003;71721;47.904;-122.188;2024-02-14T01:17:47;3;3;
82151;PMS5003;71721;47.904;-122.188;2024-02-14T01:20:13;2;2;
82151;PMS5003;71721;47.904;-122.188;2024-02-14T01:22:38;3;2;
82151;PMS5003;71721;47.904;-122.188;2024-02-14T01:25:04;2;2;
82151;PMS5003;71721;47.904;-122.188;2024-02-14T01:27:30;4;4;
82151;PMS5003;71721;47.904;-122.188;2024-02-14T01:29:56;4;3;
82151;PMS5003;71721;47.904;-122.188;2024-02-14T01:32:21;4;4;
82151;PMS5003;71721;47.904;-122.188;2024-02-14T01:34:47;4;4;
82151;PMS5003;71721;47.904;-122.188;2024-02-14T01:37:13;3;3;
82151;PMS5003;71721;47.904;-122.188;2024-02-14T01:39:38;8;6;
82151;PMS5003;71721;47.904;-122.188;2024-02-14T01:42:04;5;5;
82151;PMS5003;71721;47.904;-122.188;2024-02-14T01:44:30;5;5;
82151;PMS5003;71721;47.904;-122.188;2024-02-14T01:46:55;4;4;
82151;PMS5003;71721;47.904;-122.188;2024-02-14T01:49:21;7;7;
82151;PMS5003;71721;47.904;-122.188;2024-02-14T01:51:47;4;4;
82151;PMS5003;71721;47.904;-122.188;2024-02-14T01:54:12;7;5;
82151;PMS5003;71721;47.904;-122.188;2024-02-14T01:56:38;7;7;
82151;PMS5003;71721;47.904;-122.188;2024-02-14T01:59:04;7;7;
82151;PMS5003;71721;47.904;-122.188;2024-02-14T02:01:29;7;6;
82151;PMS5003;71721;47.904;-122.188;2024-02-14T02:03:55;6;6;
82151;PMS5003;71721;47.904;-122.188;2024-02-14T02:06:22;7;7;
82151;PMS5003;71721;47.904;-122.188;2024-02-14T02:08:46;7;7;
82151;PMS5003;71721;47.904;-122.188;2024-02-14T02:11:12;6;6;
82151;PMS5003;71721;47.904;-122.188;2024-02-14T02:13:38;6;6;
82151;PMS5003;71721;47.904;-122.188;2024-02-14T02:16:04;7;6;
82151;PMS5003;71721;47.904;-122.188;2024-02-14T02:18:29;7;6;
82151;PMS5003;71721;47.904;-122.188;2024-02-14T02:20:55;7;6;
82151;PMS5003;71721;47.904;-122.188;2024-02-14T02:23:21;7;7;
82151;PMS5003;71721;47.904;-122.188;2024-02-14T02:25:46;7;7;
82151;PMS5003;71721;47.904;-122.188;2024-02-14T02:28:12;6;6;
82151;PMS5003;71721;47.904;-122.188;2024-02-14T02:30:38;6;6;
82151;PMS5003;71721;47.904;-122.188;2024-02-14T02:33:04;7;7;
82151;PMS5003;71721;47.904;-122.188;2024-02-14T02:35:29;8;7;
82151;PMS5003;71721;47.904;-122.188;2024-02-14T02:37:55;6;6;
82151;PMS5003;71721;47.904;-122.188;2024-02-14T02:40:21;6;6;
82151;PMS5003;71721;47.904;-122.188;2024-02-14T02:42:46;7;7;
82151;PMS5003;71721;47.904;-122.188;2024-02-14T02:45:12;7;7;
82151;PMS5003;71721;47.904;-122.188;2024-02-14T02:47:38;6;6;
82151;PMS5003;71721;47.904;-122.188;2024-02-14T02:50:05;6;6;
82151;PMS5003;71721;47.904;-122.188;2024-02-14T02:52:29;4;4;
82151;PMS5003;71721;47.904;-122.188;2024-02-14T02:54:55;6;6;
82151;PMS5003;71721;47.904;-122.188;2024-02-14T02:57:26;7;6;
82151;PMS5003;71721;47.904;-122.188;2024-02-14T02:59:52;7;7;
82151;PMS5003;71721;47.904;-122.188;2024-02-14T03:02:12;6;6;
82151;PMS5003;71721;47.904;-122.188;2024-02-14T03:04:38;7;7;
82151;PMS5003;71721;47.904;-122.188;2024-02-14T03:07:04;6;6;
82151;PMS5003;71721;47.904;-122.188;2024-02-14T03:09:30;8;7;
82151;PMS5003;71721;47.904;-122.188;2024-02-14T03:11:55;6;6;
82151;PMS5003;71721;47.904;-122.188;2024-02-14T03:14:28;6;6;
82151;PMS5003;71721;47.904;-122.188;2024-02-14T03:16:47;7;7;
82151;PMS5003;71721;47.904;-122.188;2024-02-14T03:19:13;6;6;
82151;PMS5003;71721;47.904;-122.188;2024-02-14T03:21:38;6;6;
82151;PMS5003;71721;47.904;-122.188;2024-02-14T03:24:04;7;7;
82151;PMS5003;71721;47.904;-122.188;2024-02-14T03:26:30;7;7;
82151;PMS5003;71721;47.904;-122.188;2024-02-14T03:28:56;4;4;
82151;PMS5003;71721;47.904;-122.188;2024-02-14T03:31:22;8;8;
82151;PMS5003;71721;47.904;-122.188;2024-02-14T03:33:47;4;4;
82151;PMS5003;71721;47.904;-122.188;2024-02-14T03:36:13;7;7;
82151;PMS5003;71721;47.904;-122.188;2024-02-14T03:38:38;4;4;
82151;PMS5003;71721;47.904;-122.188;2024-02-14T03:41:04;4;4;
82151;PMS5003;71721;47.904;-122.188;2024-02-14T03:43:30;2;2;
82151;PMS5003;71721;47.904;-122.188;2024-02-14T03:46:01;6;6;
82151;PMS5003;71721;47.904;-122.188;2024-02-14T03:48:22;4;4;
82151;PMS5003;71721;47.904;-122.188;2024-02-14T03:50:47;7;7;
82151;PMS5003;71721;47.904;-122.188;2024-02-14T03:53:13;6;4;
82151;PMS5003;71721;47.904;-122.188;2024-02-14T03:55:39;3;3;
82151;PMS5003;71721;47.904;-122.188;2024-02-14T03:58:04;3;3;
82151;PMS5003;71721;47.904;-122.188;2024-02-14T04:00:30;4;4;
82151;PMS5003;71721;47.904;-122.188;2024-02-14T04:02:56;6;6;
82151;PMS5003;71721;47.904;-122.188;2024-02-14T04:05:22;6;6;
82151;PMS5003;71721;47.904;-122.188;2024-02-14T04:07:52;6;6;
82151;PMS5003;71721;47.904;-122.188;2024-02-14T04:10:13;6;4;
82151;PMS5003;71721;47.904;-122.188;2024-02-14T04:12:39;6;6;
82151;PMS5003;71721;47.904;-122.188;2024-02-14T04:15:05;3;3;
82151;PMS5003;71721;47.904;-122.188;2024-02-14T04:17:31;4;4;
82151;PMS5003;71721;47.904;-122.188;2024-02-14T04:19:56;3;3;
82151;PMS5003;71721;47.904;-122.188;2024-02-14T04:22:22;4;4;
82151;PMS5003;71721;47.904;-122.188;2024-02-14T04:24:47;4;4;
82151;PMS5003;71721;47.904;-122.188;2024-02-14T04:27:13;4;4;
82151;PMS5003;71721;47.904;-122.188;2024-02-14T04:29:39;4;3;
82151;PMS5003;71721;47.904;-122.188;2024-02-14T04:32:05;3;3;
82151;PMS5003;71721;47.904;-122.188;2024-02-14T04:34:31;3;3;
82151;PMS5003;71721;47.904;-122.188;2024-02-14T04:36:56;4;4;
82151;PMS5003;71721;47.904;-122.188;2024-02-14T04:39:22;4;4;
82151;PMS5003;71721;47.904;-122.188;2024-02-14T04:41:48;4;4;
82151;PMS5003;71721;47.904;-122.188;2024-02-14T04:44:13;4;4;
82151;PMS5003;71721;47.904;-122.188;2024-02-14T04:46:39;4;4;
82151;PMS5003;71721;47.904;-122.188;2024-02-14T04:49:05;3;3;
82151;PMS5003;71721;47.904;-122.188;2024-02-14T04:51:31;7;7;
82151;PMS5003;71721;47.904;-122.188;2024-02-14T04:53:56;4;4;
82151;PMS5003;71721;47.904;-122.188;2024-02-14T04:56:21;11;9;
82151;PMS5003;71721;47.904;-122.188;2024-02-14T04:58:46;6;6;
82151;PMS5003;71721;47.904;-122.188;2024-02-14T05:01:12;7;6;
82151;PMS5003;71721;47.904;-122.188;2024-02-14T05:03:38;3;3;
82151;PMS5003;71721;47.904;-122.188;2024-02-14T05:06:05;3;3;
82151;PMS5003;71721;47.904;-122.188;2024-02-14T05:08:29;4;4;
82151;PMS5003;71721;47.904;-122.188;2024-02-14T05:10:55;3;3;
82151;PMS5003;71721;47.904;-122.188;2024-02-14T05:13:21;3;3;
82151;PMS5003;71721;47.904;-122.188;2024-02-14T05:15:46;4;4;
82151;PMS5003;71721;47.904;-122.188;2024-02-14T05:18:15;3;3;
82151;PMS5003;71721;47.904;-122.188;2024-02-14T05:20:38;3;3;
82151;PMS5003;71721;47.904;-122.188;2024-02-14T05:23:04;3;3;
82151;PMS5003;71721;47.904;-122.188;2024-02-14T05:25:29;6;4;
82151;PMS5003;71721;47.904;-122.188;2024-02-14T05:27:55;4;4;
82151;PMS5003;71721;47.904;-122.188;2024-02-14T05:30:21;4;3;
82151;PMS5003;71721;47.904;-122.188;2024-02-14T05:32:57;3;3;
82151;PMS5003;71721;47.904;-122.188;2024-02-14T05:35:13;3;3;
82151;PMS5003;71721;47.904;-122.188;2024-02-14T05:37:38;4;4;
82151;PMS5003;71721;47.904;-122.188;2024-02-14T05:40:05;6;6;
82151;PMS5003;71721;47.904;-122.188;2024-02-14T05:42:30;3;3;
82151;PMS5003;71721;47.904;-122.188;2024-02-14T05:44:56;4;4;
82151;PMS5003;71721;47.904;-122.188;2024-02-14T05:47:22;6;4;
82151;PMS5003;71721;47.904;-122.188;2024-02-14T05:49:47;4;4;
82151;PMS5003;71721;47.904;-122.188;2024-02-14T05:52:14;7;7;
82151;PMS5003;71721;47.904;-122.188;2024-02-14T05:54:38;7;7;
82151;PMS5003;71721;47.904;-122.188;2024-02-14T05:57:04;11;9;
82151;PMS5003;71721;47.904;-122.188;2024-02-14T05:59:31;8;8;
82151;PMS5003;71721;47.904;-122.188;2024-02-14T06:01:56;4;4;
82151;PMS5003;71721;47.904;-122.188;2024-02-14T06:04:22;6;6;
82151;PMS5003;71721;47.904;-122.188;2024-02-14T06:06:47;6;6;
82151;PMS5003;71721;47.904;-122.188;2024-02-14T06:09:13;6;6;
82151;PMS5003;71721;47.904;-122.188;2024-02-14T06:11:40;10;7;
82151;PMS5003;71721;47.904;-122.188;2024-02-14T06:14:05;8;8;
82151;PMS5003;71721;47.904;-122.188;2024-02-14T06:16:31;13;11;
82151;PMS5003;71721;47.904;-122.188;2024-02-14T06:18:56;13;12;
82151;PMS5003;71721;47.904;-122.188;2024-02-14T06:21:21;13;12;
82151;PMS5003;71721;47.904;-122.188;2024-02-14T06:23:47;13;13;
82151;PMS5003;71721;47.904;-122.188;2024-02-14T06:26:12;16;14;
82151;PMS5003;71721;47.904;-122.188;2024-02-14T06:28:38;13;13;
82151;PMS5003;71721;47.904;-122.188;2024-02-14T06:31:04;13;13;
82151;PMS5003;71721;47.904;-122.188;2024-02-14T06:33:30;12;11;
82151;PMS5003;71721;47.904;-122.188;2024-02-14T06:35:56;17;14;
82151;PMS5003;71721;47.904;-122.188;2024-02-14T06:38:21;14;14;
82151;PMS5003;71721;47.904;-122.188;2024-02-14T06:40:48;13;12;
82151;PMS5003;71721;47.904;-122.188;2024-02-14T06:43:13;17;16;
82151;PMS5003;71721;47.904;-122.188;2024-02-14T06:45:38;13;13;
82151;PMS5003;71721;47.904;-122.188;2024-02-14T06:48:04;12;11;
82151;PMS5003;71721;47.904;-122.188;2024-02-14T06:50:29;10;10;
82151;PMS5003;71721;47.904;-122.188;2024-02-14T06:52:55;11;11;
82151;PMS5003;71721;47.904;-122.188;2024-02-14T06:55:26;11;10;
82151;PMS5003;71721;47.904;-122.188;2024-02-14T06:57:46;8;7;
82151;PMS5003;71721;47.904;-122.188;2024-02-14T07:00:12;9;9;
82151;PMS5003;71721;47.904;-122.188;2024-02-14T07:02:38;11;11;
82151;PMS5003;71721;47.904;-122.188;2024-02-14T07:05:04;14;12;
82151;PMS5003;71721;47.904;-122.188;2024-02-14T07:07:29;9;8;
82151;PMS5003;71721;47.904;-122.188;2024-02-14T07:09:54;12;12;
82151;PMS5003;71721;47.904;-122.188;2024-02-14T07:12:20;13;13;
82151;PMS5003;71721;47.904;-122.188;2024-02-14T07:14:46;12;11;
82151;PMS5003;71721;47.904;-122.188;2024-02-14T07:17:12;12;12;
82151;PMS5003;71721;47.904;-122.188;2024-02-14T07:19:38;14;13;
82151;PMS5003;71721;47.904;-122.188;2024-02-14T07:22:04;11;11;
82151;PMS5003;71721;47.904;-122.188;2024-02-14T07:24:29;16;13;
82151;PMS5003;71721;47.904;-122.188;2024-02-14T07:26:55;17;16;
82151;PMS5003;71721;47.904;-122.188;2024-02-14T07:29:20;14;14;
82151;PMS5003;71721;47.904;-122.188;2024-02-14T07:31:46;14;14;
82151;PMS5003;71721;47.904;-122.188;2024-02-14T07:34:18;16;14;
82151;PMS5003;71721;47.904;-122.188;2024-02-14T07:36:47;13;11;
82151;PMS5003;71721;47.904;-122.188;2024-02-14T07:39:04;11;11;
82151;PMS5003;71721;47.904;-122.188;2024-02-14T07:41:29;12;12;
82151;PMS5003;71721;47.904;-122.188;2024-02-14T07:43:54;10;10;
82151;PMS5003;71721;47.904;-122.188;2024-02-14T07:46:25;11;10;
82151;PMS5003;71721;47.904;-122.188;2024-02-14T07:48:51;7;7;
82151;PMS5003;71721;47.904;-122.188;2024-02-14T07:51:12;6;5;
82151;PMS5003;71721;47.904;-122.188;2024-02-14T07:53:38;5;5;
82151;PMS5003;71721;47.904;-122.188;2024-02-14T07:56:04;5;5;
82151;PMS5003;71721;47.904;-122.188;2024-02-14T07:58:34;7;7;
82151;PMS5003;71721;47.904;-122.188;2024-02-14T08:00:55;5;5;
82151;PMS5003;71721;47.904;-122.188;2024-02-14T08:03:21;6;6;
82151;PMS5003;71721;47.904;-122.188;2024-02-14T08:05:46;6;6;
82151;PMS5003;71721;47.904;-122.188;2024-02-14T08:08:12;7;7;
82151;PMS5003;71721;47.904;-122.188;2024-02-14T08:10:38;5;5;
82151;PMS5003;71721;47.904;-122.188;2024-02-14T08:13:04;6;6;
82151;PMS5003;71721;47.904;-122.188;2024-02-14T08:15:30;6;5;
82151;PMS5003;71721;47.904;-122.188;2024-02-14T08:17:55;5;5;
82151;PMS5003;71721;47.904;-122.188;2024-02-14T08:20:22;7;7;
82151;PMS5003;71721;47.904;-122.188;2024-02-14T08:22:47;6;6;
82151;PMS5003;71721;47.904;-122.188;2024-02-14T08:25:13;6;6;
82151;PMS5003;71721;47.904;-122.188;2024-02-14T08:27:39;6;6;
82151;PMS5003;71721;47.904;-122.188;2024-02-14T08:30:05;5;5;
82151;PMS5003;71721;47.904;-122.188;2024-02-14T08:32:31;5;5;
82151;PMS5003;71721;47.904;-122.188;2024-02-14T08:34:56;6;6;
82151;PMS5003;71721;47.904;-122.188;2024-02-14T08:37:22;7;7;
82151;PMS5003;71721;47.904;-122.188;2024-02-14T08:39:48;7;7;
82151;PMS5003;71721;47.904;-122.188;2024-02-14T08:42:13;6;6;
82151;PMS5003;71721;47.904;-122.188;2024-02-14T08:44:39;7;6;
82151;PMS5003;71721;47.904;-122.188;2024-02-14T08:47:10;6;6;
82151;PMS5003;71721;47.904;-122.188;2024-02-14T08:49:31;7;5;
82151;PMS5003;71721;47.904;-122.188;2024-02-14T08:51:57;8;7;
82151;PMS5003;71721;47.904;-122.188;2024-02-14T08:54:23;11;11;
82151;PMS5003;71721;47.904;-122.188;2024-02-14T08:56:48;17;15;
82151;PMS5003;71721;47.904;-122.188;2024-02-14T08:59:14;16;15;
82151;PMS5003;71721;47.904;-122.188;2024-02-14T09:01:40;11;11;
82151;PMS5003;71721;47.904;-122.188;2024-02-14T09:04:05;11;10;
82151;PMS5003;71721;47.904;-122.188;2024-02-14T09:06:31;16;15;
82151;PMS5003;71721;47.904;-122.188;2024-02-14T09:08:57;10;10;
82151;PMS5003;71721;47.904;-122.188;2024-02-14T09:11:22;11;11;
82151;PMS5003;71721;47.904;-122.188;2024-02-14T09:13:48;14;14;
82151;PMS5003;71721;47.904;-122.188;2024-02-14T09:16:19;16;15;
82151;PMS5003;71721;47.904;-122.188;2024-02-14T09:18:39;14;14;
82151;PMS5003;71721;47.904;-122.188;2024-02-14T09:21:04;21;19;
82151;PMS5003;71721;47.904;-122.188;2024-02-14T09:23:30;17;16;
82151;PMS5003;71721;47.904;-122.188;2024-02-14T09:25:55;19;17;
82151;PMS5003;71721;47.904;-122.188;2024-02-14T09:28:21;15;14;
82151;PMS5003;71721;47.904;-122.188;2024-02-14T09:30:47;12;12;
82151;PMS5003;71721;47.904;-122.188;2024-02-14T09:33:13;11;11;
82151;PMS5003;71721;47.904;-122.188;2024-02-14T09:35:39;11;11;
82151;PMS5003;71721;47.904;-122.188;2024-02-14T09:38:04;14;12;
82151;PMS5003;71721;47.904;-122.188;2024-02-14T09:40:29;15;14;
82151;PMS5003;71721;47.904;-122.188;2024-02-14T09:42:55;15;14;
82151;PMS5003;71721;47.904;-122.188;2024-02-14T09:45:22;15;14;
82151;PMS5003;71721;47.904;-122.188;2024-02-14T09:47:46;15;15;
82151;PMS5003;71721;47.904;-122.188;2024-02-14T09:50:12;11;11;
82151;PMS5003;71721;47.904;-122.188;2024-02-14T09:52:38;11;11;
82151;PMS5003;71721;47.904;-122.188;2024-02-14T09:55:03;11;11;
82151;PMS5003;71721;47.904;-122.188;2024-02-14T09:57:29;14;14;
82151;PMS5003;71721;47.904;-122.188;2024-02-14T09:59:55;14;12;
82151;PMS5003;71721;47.904;-122.188;2024-02-14T10:02:20;14;14;
82151;PMS5003;71721;47.904;-122.188;2024-02-14T10:04:46;9;7;
82151;PMS5003;71721;47.904;-122.188;2024-02-14T10:07:12;14;14;
82151;PMS5003;71721;47.904;-122.188;2024-02-14T10:09:41;10;10;
82151;PMS5003;71721;47.904;-122.188;2024-02-14T10:12:05;12;11;
82151;PMS5003;71721;47.904;-122.188;2024-02-14T10:14:30;7;7;
82151;PMS5003;71721;47.904;-122.188;2024-02-14T10:16:55;10;10;
82151;PMS5003;71721;47.904;-122.188;2024-02-14T10:19:21;10;10;
82151;PMS5003;71721;47.904;-122.188;2024-02-14T10:21:55;11;11;
82151;PMS5003;71721;47.904;-122.188;2024-02-14T10:24:12;6;6;
82151;PMS5003;71721;47.904;-122.188;2024-02-14T10:26:38;7;7;
82151;PMS5003;71721;47.904;-122.188;2024-02-14T10:29:06;7;5;
82151;PMS5003;71721;47.904;-122.188;2024-02-14T10:31:30;9;9;
82151;PMS5003;71721;47.904;-122.188;2024-02-14T10:33:56;7;7;
82151;PMS5003;71721;47.904;-122.188;2024-02-14T10:36:22;11;11;
82151;PMS5003;71721;47.904;-122.188;2024-02-14T10:38:47;11;11;
82151;PMS5003;71721;47.904;-122.188;2024-02-14T10:41:12;11;11;
82151;PMS5003;71721;47.904;-122.188;2024-02-14T10:43:40;10;10;
82151;PMS5003;71721;47.904;-122.188;2024-02-14T10:46:04;10;10;
82151;PMS5003;71721;47.904;-122.188;2024-02-14T10:48:29;9;9;
82151;PMS5003;71721;47.904;-122.188;2024-02-14T10:50:55;10;9;
82151;PMS5003;71721;47.904;-122.188;2024-02-14T10:53:20;9;9;
82151;PMS5003;71721;47.904;-122.188;2024-02-14T10:55:47;9;9;
82151;PMS5003;71721;47.904;-122.188;2024-02-14T10:58:12;10;9;
82151;PMS5003;71721;47.904;-122.188;2024-02-14T11:00:38;11;10;
82151;PMS5003;71721;47.904;-122.188;2024-02-14T11:03:04;9;9;
82151;PMS5003;71721;47.904;-122.188;2024-02-14T11:05:30;10;10;
82151;PMS5003;71721;47.904;-122.188;2024-02-14T11:07:55;12;11;
82151;PMS5003;71721;47.904;-122.188;2024-02-14T11:10:22;14;14;
82151;PMS5003;71721;47.904;-122.188;2024-02-14T11:12:47;10;9;
82151;PMS5003;71721;47.904;-122.188;2024-02-14T11:15:16;10;10;
82151;PMS5003;71721;47.904;-122.188;2024-02-14T11:17:38;10;10;
82151;PMS5003;71721;47.904;-122.188;2024-02-14T11:20:13;14;14;
82151;PMS5003;71721;47.904;-122.188;2024-02-14T11:22:33;14;11;
82151;PMS5003;71721;47.904;-122.188;2024-02-14T11:24:55;12;12;
82151;PMS5003;71721;47.904;-122.188;2024-02-14T11:27:25;15;15;
82151;PMS5003;71721;47.904;-122.188;2024-02-14T11:29:53;12;11;
82151;PMS5003;71721;47.904;-122.188;2024-02-14T11:32:15;14;14;
82151;PMS5003;71721;47.904;-122.188;2024-02-14T11:34:41;15;15;
82151;PMS5003;71721;47.904;-122.188;2024-02-14T11:37:06;16;15;
82151;PMS5003;71721;47.904;-122.188;2024-02-14T11:39:32;14;12;
82151;PMS5003;71721;47.904;-122.188;2024-02-14T11:41:57;18;16;
82151;PMS5003;71721;47.904;-122.188;2024-02-14T11:44:22;14;12;
82151;PMS5003;71721;47.904;-122.188;2024-02-14T11:46:48;14;14;
82151;PMS5003;71721;47.904;-122.188;2024-02-14T11:49:14;14;14;
82151;PMS5003;71721;47.904;-122.188;2024-02-14T11:51:39;12;12;
82151;PMS5003;71721;47.904;-122.188;2024-02-14T11:54:05;18;16;
82151;PMS5003;71721;47.904;-122.188;2024-02-14T11:56:31;15;15;
82151;PMS5003;71721;47.904;-122.188;2024-02-14T11:58:57;18;15;
82151;PMS5003;71721;47.904;-122.188;2024-02-14T12:01:23;12;11;
82151;PMS5003;71721;47.904;-122.188;2024-02-14T12:03:49;15;14;
82151;PMS5003;71721;47.904;-122.188;2024-02-14T12:06:15;14;14;
82151;PMS5003;71721;47.904;-122.188;2024-02-14T12:08:40;14;14;
82151;PMS5003;71721;47.904;-122.188;2024-02-14T12:11:06;15;15;
82151;PMS5003;71721;47.904;-122.188;2024-02-14T12:13:32;18;15;
82151;PMS5003;71721;47.904;-122.188;2024-02-14T12:15:57;16;15;
82151;PMS5003;71721;47.904;-122.188;2024-02-14T12:18:22;15;12;
82151;PMS5003;71721;47.904;-122.188;2024-02-14T12:20:49;11;11;
82151;PMS5003;71721;47.904;-122.188;2024-02-14T12:23:14;11;11;
82151;PMS5003;71721;47.904;-122.188;2024-02-14T12:25:40;16;15;
82151;PMS5003;71721;47.904;-122.188;2024-02-14T12:28:06;15;14;
82151;PMS5003;71721;47.904;-122.188;2024-02-14T12:30:42;14;14;
82151;PMS5003;71721;47.904;-122.188;2024-02-14T12:32:58;14;14;
82151;PMS5003;71721;47.904;-122.188;2024-02-14T12:35:23;15;15;
82151;PMS5003;71721;47.904;-122.188;2024-02-14T12:37:49;12;12;
82151;PMS5003;71721;47.904;-122.188;2024-02-14T12:40:14;11;10;
82151;PMS5003;71721;47.904;-122.188;2024-02-14T12:42:40;11;11;
82151;PMS5003;71721;47.904;-122.188;2024-02-14T12:45:06;11;9;
82151;PMS5003;71721;47.904;-122.188;2024-02-14T12:47:32;8;8;
82151;PMS5003;71721;47.904;-122.188;2024-02-14T12:49:57;8;8;
82151;PMS5003;71721;47.904;-122.188;2024-02-14T12:52:23;12;11;
82151;PMS5003;71721;47.904;-122.188;2024-02-14T12:54:49;12;11;
82151;PMS5003;71721;47.904;-122.188;2024-02-14T12:57:15;8;8;
82151;PMS5003;71721;47.904;-122.188;2024-02-14T12:59:40;11;11;
82151;PMS5003;71721;47.904;-122.188;2024-02-14T13:02:06;12;12;
82151;PMS5003;71721;47.904;-122.188;2024-02-14T13:04:32;11;11;
82151;PMS5003;71721;47.904;-122.188;2024-02-14T13:06:58;8;8;
82151;PMS5003;71721;47.904;-122.188;2024-02-14T13:09:23;10;8;
82151;PMS5003;71721;47.904;-122.188;2024-02-14T13:11:48;7;7;
82151;PMS5003;71721;47.904;-122.188;2024-02-14T13:14:14;8;8;
82151;PMS5003;71721;47.904;-122.188;2024-02-14T13:16:40;7;7;
82151;PMS5003;71721;47.904;-122.188;2024-02-14T13:19:06;10;8;
82151;PMS5003;71721;47.904;-122.188;2024-02-14T13:21:32;7;7;
82151;PMS5003;71721;47.904;-122.188;2024-02-14T13:23:58;8;7;
82151;PMS5003;71721;47.904;-122.188;2024-02-14T13:26:23;7;7;
82151;PMS5003;71721;47.904;-122.188;2024-02-14T13:28:49;7;7;
82151;PMS5003;71721;47.904;-122.188;2024-02-14T13:31:15;5;5;
82151;PMS5003;71721;47.904;-122.188;2024-02-14T13:33:41;6;6;
82151;PMS5003;71721;47.904;-122.188;2024-02-14T13:36:07;7;6;
82151;PMS5003;71721;47.904;-122.188;2024-02-14T13:38:32;6;6;
82151;PMS5003;71721;47.904;-122.188;2024-02-14T13:40:58;6;6;
82151;PMS5003;71721;47.904;-122.188;2024-02-14T13:43:24;7;6;
82151;PMS5003;71721;47.904;-122.188;2024-02-14T13:45:50;5;5;
82151;PMS5003;71721;47.904;-122.188;2024-02-14T13:48:16;6;6;
82151;PMS5003;71721;47.904;-122.188;2024-02-14T13:50:42;5;5;
82151;PMS5003;71721;47.904;-122.188;2024-02-14T13:53:07;7;7;
82151;PMS5003;71721;47.904;-122.188;2024-02-14T13:55:33;6;6;
82151;PMS5003;71721;47.904;-122.188;2024-02-14T13:57:59;5;5;
82151;PMS5003;71721;47.904;-122.188;2024-02-14T14:00:25;6;6;
82151;PMS5003;71721;47.904;-122.188;2024-02-14T14:02:50;7;7;
82151;PMS5003;71721;47.904;-122.188;2024-02-14T14:05:16;7;7;
82151;PMS5003;71721;47.904;-122.188;2024-02-14T14:07:42;6;6;
82151;PMS5003;71721;47.904;-122.188;2024-02-14T14:10:08;6;6;
82151;PMS5003;71721;47.904;-122.188;2024-02-14T14:12:34;6;6;
82151;PMS5003;71721;47.904;-122.188;2024-02-14T14:15:00;6;5;
82151;PMS5003;71721;47.904;-122.188;2024-02-14T14:17:26;6;6;
82151;PMS5003;71721;47.904;-122.188;2024-02-14T14:19:52;5;5;
82151;PMS5003;71721;47.904;-122.188;2024-02-14T14:22:17;5;5;
82151;PMS5003;71721;47.904;-122.188;2024-02-14T14:24:43;6;6;
82151;PMS5003;71721;47.904;-122.188;2024-02-14T14:27:09;6;6;
82151;PMS5003;71721;47.904;-122.188;2024-02-14T14:29:34;7;6;
82151;PMS5003;71721;47.904;-122.188;2024-02-14T14:32:00;10;10;
82151;PMS5003;71721;47.904;-122.188;2024-02-14T14:34:26;12;11;
82151;PMS5003;71721;47.904;-122.188;2024-02-14T14:36:52;7;7;
82151;PMS5003;71721;47.904;-122.188;2024-02-14T14:39:18;11;11;
82151;PMS5003;71721;47.904;-122.188;2024-02-14T14:41:48;11;11;
82151;PMS5003;71721;47.904;-122.188;2024-02-14T14:44:09;14;14;
82151;PMS5003;71721;47.904;-122.188;2024-02-14T14:46:35;18;18;
82151;PMS5003;71721;47.904;-122.188;2024-02-14T14:49:01;15;14;
82151;PMS5003;71721;47.904;-122.188;2024-02-14T14:51:28;9;9;
82151;PMS5003;71721;47.904;-122.188;2024-02-14T14:53:52;14;14;
82151;PMS5003;71721;47.904;-122.188;2024-02-14T14:56:18;12;12;
82151;PMS5003;71721;47.904;-122.188;2024-02-14T14:58:44;11;11;
82151;PMS5003;71721;47.904;-122.188;2024-02-14T15:01:10;11;10;
82151;PMS5003;71721;47.904;-122.188;2024-02-14T15:03:35;11;11;
82151;PMS5003;71721;47.904;-122.188;2024-02-14T15:06:01;14;11;
82151;PMS5003;71721;47.904;-122.188;2024-02-14T15:08:26;12;12;
82151;PMS5003;71721;47.904;-122.188;2024-02-14T15:10:52;10;10;
82151;PMS5003;71721;47.904;-122.188;2024-02-14T15:13:18;11;10;
82151;PMS5003;71721;47.904;-122.188;2024-02-14T15:15:43;10;10;
82151;PMS5003;71721;47.904;-122.188;2024-02-14T15:18:09;12;12;
82151;PMS5003;71721;47.904;-122.188;2024-02-14T15:20:35;11;10;
82151;PMS5003;71721;47.904;-122.188;2024-02-14T15:23:01;11;11;
82151;PMS5003;71721;47.904;-122.188;2024-02-14T15:25:26;10;10;
82151;PMS5003;71721;47.904;-122.188;2024-02-14T15:27:52;9;9;
82151;PMS5003;71721;47.904;-122.188;2024-02-14T15:30:18;11;11;
82151;PMS5003;71721;47.904;-122.188;2024-02-14T15:32:44;14;12;
82151;PMS5003;71721;47.904;-122.188;2024-02-14T15:35:10;9;9;
82151;PMS5003;71721;47.904;-122.188;2024-02-14T15:37:36;9;7;